sensor_id;sensor_type;location;lat;lon;timestamp;temperature;humidity
33988;DHT22;37428;53.580;-1.666;2023-01-15T00:02:27;2.60;81.70
33988;DHT22;37428;53.580;-1.666;2023-01-15T00:05:34;2.60;81.40
33988;DHT22;37428;53.580;-1.666;2023-01-15T00:08:36;2.60;81.70
33988;DHT22;37428;53.580;-1.666;2023-01-15T00:11:40;2.60;81.10
33988;DHT22;37428;53.580;-1.666;2023-01-15T00:14:42;2.60;81.60
33988;DHT22;37428;53.580;-1.666;2023-01-15T00:17:45;2.50;81.30
33988;DHT22;37428;53.580;-1.666;2023-01-15T00:20:47;2.50;81.60
33988;DHT22;37428;53.580;-1.666;2023-01-15T00:23:50;2.40;82.10
33988;DHT22;37428;53.580;-1.666;2023-01-15T00:27:11;2.40;82.40
33988;DHT22;37428;53.580;-1.666;2023-01-15T00:30:30;2.30;82.70
33988;DHT22;37428;53.580;-1.666;2023-01-15T00:33:33;2.40;82.10
33988;DHT22;37428;53.580;-1.666;2023-01-15T00:36:35;2.30;82.20
33988;DHT22;37428;53.580;-1.666;2023-01-15T00:39:37;2.30;81.90
33988;DHT22;37428;53.580;-1.666;2023-01-15T00:42:41;2.30;81.50
33988;DHT22;37428;53.580;-1.666;2023-01-15T00:45:43;2.30;81.30
33988;DHT22;37428;53.580;-1.666;2023-01-15T00:48:45;2.20;81.40
33988;DHT22;37428;53.580;-1.666;2023-01-15T00:51:47;2.20;81.50
33988;DHT22;37428;53.580;-1.666;2023-01-15T00:54:50;2.20;81.10
33988;DHT22;37428;53.580;-1.666;2023-01-15T00:57:55;2.20;81.30
33988;DHT22;37428;53.580;-1.666;2023-01-15T01:00:57;2.20;81.50
33988;DHT22;37428;53.580;-1.666;2023-01-15T01:04:00;2.20;81.40
33988;DHT22;37428;53.580;-1.666;2023-01-15T01:07:03;2.30;79.80
33988;DHT22;37428;53.580;-1.666;2023-01-15T01:10:05;2.30;79.50
33988;DHT22;37428;53.580;-1.666;2023-01-15T01:13:10;2.30;78.50
33988;DHT22;37428;53.580;-1.666;2023-01-15T01:16:24;2.30;79.00
33988;DHT22;37428;53.580;-1.666;2023-01-15T01:19:27;2.30;78.20
33988;DHT22;37428;53.580;-1.666;2023-01-15T01:22:29;2.30;77.80
33988;DHT22;37428;53.580;-1.666;2023-01-15T01:25:33;2.30;78.20
33988;DHT22;37428;53.580;-1.666;2023-01-15T01:28:36;2.30;77.40
33988;DHT22;37428;53.580;-1.666;2023-01-15T01:31:38;2.30;77.40
33988;DHT22;37428;53.580;-1.666;2023-01-15T01:34:40;2.30;77.10
33988;DHT22;37428;53.580;-1.666;2023-01-15T01:37:43;2.30;76.60
33988;DHT22;37428;53.580;-1.666;2023-01-15T01:40:49;2.30;75.70
33988;DHT22;37428;53.580;-1.666;2023-01-15T01:43:55;2.30;75.70
33988;DHT22;37428;53.580;-1.666;2023-01-15T01:46:58;2.30;75.90
33988;DHT22;37428;53.580;-1.666;2023-01-15T01:50:07;2.30;75.80
33988;DHT22;37428;53.580;-1.666;2023-01-15T01:53:12;2.30;75.70
33988;DHT22;37428;53.580;-1.666;2023-01-15T01:56:15;2.20;76.10
33988;DHT22;37428;53.580;-1.666;2023-01-15T01:59:21;2.20;76.00
33988;DHT22;37428;53.580;-1.666;2023-01-15T02:02:24;2.10;76.90
33988;DHT22;37428;53.580;-1.666;2023-01-15T02:05:29;2.10;76.30
33988;DHT22;37428;53.580;-1.666;2023-01-15T02:08:32;2.20;77.00
33988;DHT22;37428;53.580;-1.666;2023-01-15T02:11:35;2.20;77.00
33988;DHT22;37428;53.580;-1.666;2023-01-15T02:14:46;2.10;76.60
33988;DHT22;37428;53.580;-1.666;2023-01-15T02:17:52;2.10;77.30
33988;DHT22;37428;53.580;-1.666;2023-01-15T02:20:58;2.10;77.20
33988;DHT22;37428;53.580;-1.666;2023-01-15T02:24:06;2.10;76.80
33988;DHT22;37428;53.580;-1.666;2023-01-15T02:27:14;2.10;76.70
33988;DHT22;37428;53.580;-1.666;2023-01-15T02:30:22;2.10;77.10
33988;DHT22;37428;53.580;-1.666;2023-01-15T02:33:31;2.10;77.20
33988;DHT22;37428;53.580;-1.666;2023-01-15T02:36:37;2.00;76.90
33988;DHT22;37428;53.580;-1.666;2023-01-15T02:39:41;2.00;77.40
33988;DHT22;37428;53.580;-1.666;2023-01-15T02:42:48;2.10;77.20
33988;DHT22;37428;53.580;-1.666;2023-01-15T02:45:53;2.10;76.70
33988;DHT22;37428;53.580;-1.666;2023-01-15T02:48:57;2.20;76.50
33988;DHT22;37428;53.580;-1.666;2023-01-15T02:52:04;2.20;75.90
33988;DHT22;37428;53.580;-1.666;2023-01-15T02:55:11;2.20;76.60
33988;DHT22;37428;53.580;-1.666;2023-01-15T02:58:22;2.30;76.90
33988;DHT22;37428;53.580;-1.666;2023-01-15T03:01:32;2.20;77.00
33988;DHT22;37428;53.580;-1.666;2023-01-15T03:04:41;2.20;77.10
33988;DHT22;37428;53.580;-1.666;2023-01-15T03:07:47;2.10;77.40
33988;DHT22;37428;53.580;-1.666;2023-01-15T03:10:57;2.10;77.70
33988;DHT22;37428;53.580;-1.666;2023-01-15T03:14:08;2.10;77.70
33988;DHT22;37428;53.580;-1.666;2023-01-15T03:17:20;2.10;77.90
33988;DHT22;37428;53.580;-1.666;2023-01-15T03:20:25;2.10;78.20
33988;DHT22;37428;53.580;-1.666;2023-01-15T03:23:28;2.10;78.60
33988;DHT22;37428;53.580;-1.666;2023-01-15T03:26:31;2.10;78.90
33988;DHT22;37428;53.580;-1.666;2023-01-15T03:29:39;2.10;78.80
33988;DHT22;37428;53.580;-1.666;2023-01-15T03:32:42;2.10;79.20
33988;DHT22;37428;53.580;-1.666;2023-01-15T03:35:47;2.20;78.90
33988;DHT22;37428;53.580;-1.666;2023-01-15T03:38:52;2.20;79.10
33988;DHT22;37428;53.580;-1.666;2023-01-15T03:42:02;2.20;79.20
33988;DHT22;37428;53.580;-1.666;2023-01-15T03:45:12;2.20;79.50
33988;DHT22;37428;53.580;-1.666;2023-01-15T03:48:22;2.30;79.90
33988;DHT22;37428;53.580;-1.666;2023-01-15T03:51:32;2.30;79.60
33988;DHT22;37428;53.580;-1.666;2023-01-15T03:54:46;2.20;79.50
33988;DHT22;37428;53.580;-1.666;2023-01-15T03:57:55;2.30;79.80
33988;DHT22;37428;53.580;-1.666;2023-01-15T04:01:03;2.30;80.20
33988;DHT22;37428;53.580;-1.666;2023-01-15T04:04:06;2.20;80.30
33988;DHT22;37428;53.580;-1.666;2023-01-15T04:07:11;2.20;80.60
33988;DHT22;37428;53.580;-1.666;2023-01-15T04:10:13;2.30;81.10
33988;DHT22;37428;53.580;-1.666;2023-01-15T04:13:15;2.30;80.60
33988;DHT22;37428;53.580;-1.666;2023-01-15T04:16:24;2.30;80.50
33988;DHT22;37428;53.580;-1.666;2023-01-15T04:19:26;2.30;80.70
33988;DHT22;37428;53.580;-1.666;2023-01-15T04:22:28;2.30;81.00
33988;DHT22;37428;53.580;-1.666;2023-01-15T04:25:31;2.30;81.00
33988;DHT22;37428;53.580;-1.666;2023-01-15T04:28:34;2.30;80.90
33988;DHT22;37428;53.580;-1.666;2023-01-15T04:31:38;2.40;80.90
33988;DHT22;37428;53.580;-1.666;2023-01-15T04:34:40;2.40;81.00
33988;DHT22;37428;53.580;-1.666;2023-01-15T04:37:44;2.40;80.90
33988;DHT22;37428;53.580;-1.666;2023-01-15T04:40:46;2.40;81.10
33988;DHT22;37428;53.580;-1.666;2023-01-15T04:44:14;2.40;81.20
33988;DHT22;37428;53.580;-1.666;2023-01-15T04:47:18;2.50;81.20
33988;DHT22;37428;53.580;-1.666;2023-01-15T04:50:20;2.50;81.30
33988;DHT22;37428;53.580;-1.666;2023-01-15T04:53:22;2.40;81.00
33988;DHT22;37428;53.580;-1.666;2023-01-15T04:56:24;2.50;81.20
33988;DHT22;37428;53.580;-1.666;2023-01-15T04:59:26;2.50;81.60
33988;DHT22;37428;53.580;-1.666;2023-01-15T05:02:30;2.50;81.40
33988;DHT22;37428;53.580;-1.666;2023-01-15T05:05:32;2.60;81.60
33988;DHT22;37428;53.580;-1.666;2023-01-15T05:08:34;2.60;81.00
33988;DHT22;37428;53.580;-1.666;2023-01-15T05:11:37;2.60;80.90
33988;DHT22;37428;53.580;-1.666;2023-01-15T05:14:39;2.70;81.40
33988;DHT22;37428;53.580;-1.666;2023-01-15T05:17:43;2.80;82.50
33988;DHT22;37428;53.580;-1.666;2023-01-15T05:20:45;2.70;82.50
33988;DHT22;37428;53.580;-1.666;2023-01-15T05:23:48;2.70;83.40
33988;DHT22;37428;53.580;-1.666;2023-01-15T05:26:50;2.70;83.50
33988;DHT22;37428;53.580;-1.666;2023-01-15T05:29:53;2.70;84.30
33988;DHT22;37428;53.580;-1.666;2023-01-15T05:32:57;2.70;85.40
33988;DHT22;37428;53.580;-1.666;2023-01-15T05:36:03;2.60;86.20
33988;DHT22;37428;53.580;-1.666;2023-01-15T05:39:06;2.60;87.50
33988;DHT22;37428;53.580;-1.666;2023-01-15T05:42:08;2.50;87.60
33988;DHT22;37428;53.580;-1.666;2023-01-15T05:45:11;2.50;88.30
33988;DHT22;37428;53.580;-1.666;2023-01-15T05:48:15;2.50;88.70
33988;DHT22;37428;53.580;-1.666;2023-01-15T05:51:17;2.40;89.50
33988;DHT22;37428;53.580;-1.666;2023-01-15T05:54:20;2.40;89.90
33988;DHT22;37428;53.580;-1.666;2023-01-15T05:57:22;2.30;90.30
33988;DHT22;37428;53.580;-1.666;2023-01-15T06:00:25;2.30;90.70
33988;DHT22;37428;53.580;-1.666;2023-01-15T06:03:28;2.20;91.40
33988;DHT22;37428;53.580;-1.666;2023-01-15T06:06:31;2.20;91.70
33988;DHT22;37428;53.580;-1.666;2023-01-15T06:09:33;2.10;91.90
33988;DHT22;37428;53.580;-1.666;2023-01-15T06:12:35;2.10;92.50
33988;DHT22;37428;53.580;-1.666;2023-01-15T06:15:37;2.00;92.70
33988;DHT22;37428;53.580;-1.666;2023-01-15T06:18:41;2.00;93.00
33988;DHT22;37428;53.580;-1.666;2023-01-15T06:21:43;2.00;93.10
33988;DHT22;37428;53.580;-1.666;2023-01-15T06:24:45;2.00;92.90
33988;DHT22;37428;53.580;-1.666;2023-01-15T06:27:47;2.00;93.20
33988;DHT22;37428;53.580;-1.666;2023-01-15T06:30:49;2.00;93.60
33988;DHT22;37428;53.580;-1.666;2023-01-15T06:33:53;2.00;93.60
33988;DHT22;37428;53.580;-1.666;2023-01-15T06:36:55;2.00;93.90
33988;DHT22;37428;53.580;-1.666;2023-01-15T06:39:58;1.90;93.90
33988;DHT22;37428;53.580;-1.666;2023-01-15T06:43:00;1.90;94.10
33988;DHT22;37428;53.580;-1.666;2023-01-15T06:46:19;1.90;94.40
33988;DHT22;37428;53.580;-1.666;2023-01-15T06:49:40;2.00;94.70
33988;DHT22;37428;53.580;-1.666;2023-01-15T06:52:43;2.00;95.10
33988;DHT22;37428;53.580;-1.666;2023-01-15T06:55:45;2.00;95.40
33988;DHT22;37428;53.580;-1.666;2023-01-15T06:58:47;2.10;95.70
33988;DHT22;37428;53.580;-1.666;2023-01-15T07:01:49;2.10;95.90
33988;DHT22;37428;53.580;-1.666;2023-01-15T07:04:53;2.10;96.00
33988;DHT22;37428;53.580;-1.666;2023-01-15T07:07:56;2.20;96.40
33988;DHT22;37428;53.580;-1.666;2023-01-15T07:11:02;2.20;96.80
33988;DHT22;37428;53.580;-1.666;2023-01-15T07:14:06;2.20;97.10
33988;DHT22;37428;53.580;-1.666;2023-01-15T07:17:08;2.30;97.10
33988;DHT22;37428;53.580;-1.666;2023-01-15T07:20:12;2.30;96.90
33988;DHT22;37428;53.580;-1.666;2023-01-15T07:23:14;2.30;96.90
33988;DHT22;37428;53.580;-1.666;2023-01-15T07:26:16;2.30;96.90
33988;DHT22;37428;53.580;-1.666;2023-01-15T07:29:20;2.40;96.70
33988;DHT22;37428;53.580;-1.666;2023-01-15T07:32:23;2.40;97.20
33988;DHT22;37428;53.580;-1.666;2023-01-15T07:35:27;2.40;97.00
33988;DHT22;37428;53.580;-1.666;2023-01-15T07:38:30;2.40;97.30
33988;DHT22;37428;53.580;-1.666;2023-01-15T07:41:32;2.40;97.30
33988;DHT22;37428;53.580;-1.666;2023-01-15T07:44:52;2.40;97.60
33988;DHT22;37428;53.580;-1.666;2023-01-15T07:48:11;2.40;97.20
33988;DHT22;37428;53.580;-1.666;2023-01-15T07:51:32;2.40;97.20
33988;DHT22;37428;53.580;-1.666;2023-01-15T07:54:35;2.40;97.40
33988;DHT22;37428;53.580;-1.666;2023-01-15T07:57:37;2.40;97.40
33988;DHT22;37428;53.580;-1.666;2023-01-15T08:00:40;2.50;97.60
33988;DHT22;37428;53.580;-1.666;2023-01-15T08:03:42;2.50;97.50
33988;DHT22;37428;53.580;-1.666;2023-01-15T08:06:45;2.50;97.40
33988;DHT22;37428;53.580;-1.666;2023-01-15T08:09:47;2.50;97.20
33988;DHT22;37428;53.580;-1.666;2023-01-15T08:12:50;2.50;97.30
33988;DHT22;37428;53.580;-1.666;2023-01-15T08:16:24;2.50;97.40
33988;DHT22;37428;53.580;-1.666;2023-01-15T08:19:26;2.50;98.00
33988;DHT22;37428;53.580;-1.666;2023-01-15T08:22:31;2.60;98.20
33988;DHT22;37428;53.580;-1.666;2023-01-15T08:25:33;2.60;98.60
33988;DHT22;37428;53.580;-1.666;2023-01-15T08:28:35;2.70;99.10
33988;DHT22;37428;53.580;-1.666;2023-01-15T08:31:37;2.70;99.10
33988;DHT22;37428;53.580;-1.666;2023-01-15T08:34:40;2.80;99.10
33988;DHT22;37428;53.580;-1.666;2023-01-15T08:37:44;2.80;99.30
33988;DHT22;37428;53.580;-1.666;2023-01-15T08:40:52;2.90;99.40
33988;DHT22;37428;53.580;-1.666;2023-01-15T08:44:00;2.90;99.50
33988;DHT22;37428;53.580;-1.666;2023-01-15T08:47:02;3.00;99.80
33988;DHT22;37428;53.580;-1.666;2023-01-15T08:50:05;3.00;99.90
33988;DHT22;37428;53.580;-1.666;2023-01-15T08:53:09;3.10;99.90
33988;DHT22;37428;53.580;-1.666;2023-01-15T08:56:12;3.20;99.90
33988;DHT22;37428;53.580;-1.666;2023-01-15T08:59:15;3.20;99.90
33988;DHT22;37428;53.580;-1.666;2023-01-15T09:02:18;3.30;99.90
33988;DHT22;37428;53.580;-1.666;2023-01-15T09:05:20;3.30;99.90
33988;DHT22;37428;53.580;-1.666;2023-01-15T09:08:23;3.40;99.90
33988;DHT22;37428;53.580;-1.666;2023-01-15T09:11:26;3.50;99.90
33988;DHT22;37428;53.580;-1.666;2023-01-15T09:14:28;3.50;99.60
33988;DHT22;37428;53.580;-1.666;2023-01-15T09:17:31;3.60;99.40
33988;DHT22;37428;53.580;-1.666;2023-01-15T09:20:33;3.60;99.30
33988;DHT22;37428;53.580;-1.666;2023-01-15T09:23:37;3.60;99.10
33988;DHT22;37428;53.580;-1.666;2023-01-15T09:26:39;3.60;98.70
33988;DHT22;37428;53.580;-1.666;2023-01-15T09:29:41;3.60;98.40
33988;DHT22;37428;53.580;-1.666;2023-01-15T09:32:44;3.70;98.30
33988;DHT22;37428;53.580;-1.666;2023-01-15T09:35:46;3.70;98.40
33988;DHT22;37428;53.580;-1.666;2023-01-15T09:38:50;3.70;98.20
33988;DHT22;37428;53.580;-1.666;2023-01-15T09:42:04;3.80;97.80
33988;DHT22;37428;53.580;-1.666;2023-01-15T09:45:19;3.80;97.70
33988;DHT22;37428;53.580;-1.666;2023-01-15T09:48:32;3.90;97.50
33988;DHT22;37428;53.580;-1.666;2023-01-15T09:51:42;4.00;97.30
33988;DHT22;37428;53.580;-1.666;2023-01-15T09:54:55;4.00;97.30
33988;DHT22;37428;53.580;-1.666;2023-01-15T09:58:02;4.10;96.90
33988;DHT22;37428;53.580;-1.666;2023-01-15T10:01:05;4.20;96.50
33988;DHT22;37428;53.580;-1.666;2023-01-15T10:04:14;4.40;96.20
33988;DHT22;37428;53.580;-1.666;2023-01-15T10:07:22;4.60;95.90
33988;DHT22;37428;53.580;-1.666;2023-01-15T10:10:31;4.80;95.60
33988;DHT22;37428;53.580;-1.666;2023-01-15T10:13:39;5.00;94.80
33988;DHT22;37428;53.580;-1.666;2023-01-15T10:16:42;5.00;94.30
33988;DHT22;37428;53.580;-1.666;2023-01-15T10:19:44;5.00;94.30
33988;DHT22;37428;53.580;-1.666;2023-01-15T10:23:24;5.00;94.10
33988;DHT22;37428;53.580;-1.666;2023-01-15T10:26:34;4.90;94.00
33988;DHT22;37428;53.580;-1.666;2023-01-15T10:29:42;4.90;94.70
33988;DHT22;37428;53.580;-1.666;2023-01-15T10:32:48;5.00;94.30
33988;DHT22;37428;53.580;-1.666;2023-01-15T10:35:55;5.00;94.20
33988;DHT22;37428;53.580;-1.666;2023-01-15T10:39:03;5.10;94.80
33988;DHT22;37428;53.580;-1.666;2023-01-15T10:42:21;5.40;94.40
33988;DHT22;37428;53.580;-1.666;2023-01-15T10:45:29;5.50;93.10
33988;DHT22;37428;53.580;-1.666;2023-01-15T10:48:37;5.60;92.40
33988;DHT22;37428;53.580;-1.666;2023-01-15T10:51:44;5.60;91.30
33988;DHT22;37428;53.580;-1.666;2023-01-15T10:54:50;5.60;91.30
33988;DHT22;37428;53.580;-1.666;2023-01-15T10:57:59;5.70;91.30
33988;DHT22;37428;53.580;-1.666;2023-01-15T11:01:05;5.70;90.40
33988;DHT22;37428;53.580;-1.666;2023-01-15T11:04:11;5.70;90.10
33988;DHT22;37428;53.580;-1.666;2023-01-15T11:07:14;5.70;90.00
33988;DHT22;37428;53.580;-1.666;2023-01-15T11:10:19;5.80;89.90
33988;DHT22;37428;53.580;-1.666;2023-01-15T11:13:24;5.70;90.20
33988;DHT22;37428;53.580;-1.666;2023-01-15T11:16:41;5.50;89.80
33988;DHT22;37428;53.580;-1.666;2023-01-15T11:20:04;5.40;90.50
33988;DHT22;37428;53.580;-1.666;2023-01-15T11:23:14;5.30;91.00
33988;DHT22;37428;53.580;-1.666;2023-01-15T11:26:19;5.30;91.90
33988;DHT22;37428;53.580;-1.666;2023-01-15T11:29:30;5.20;92.00
33988;DHT22;37428;53.580;-1.666;2023-01-15T11:32:35;5.20;92.90
33988;DHT22;37428;53.580;-1.666;2023-01-15T11:35:37;5.20;93.20
33988;DHT22;37428;53.580;-1.666;2023-01-15T11:38:51;5.10;92.90
33988;DHT22;37428;53.580;-1.666;2023-01-15T11:41:58;5.10;93.00
33988;DHT22;37428;53.580;-1.666;2023-01-15T11:45:20;5.10;92.60
33988;DHT22;37428;53.580;-1.666;2023-01-15T11:48:45;5.00;92.30
33988;DHT22;37428;53.580;-1.666;2023-01-15T11:52:07;5.00;91.60
33988;DHT22;37428;53.580;-1.666;2023-01-15T11:55:12;5.00;91.80
33988;DHT22;37428;53.580;-1.666;2023-01-15T11:58:15;5.10;92.30
33988;DHT22;37428;53.580;-1.666;2023-01-15T12:01:24;5.20;92.40
33988;DHT22;37428;53.580;-1.666;2023-01-15T12:04:34;5.20;92.10
33988;DHT22;37428;53.580;-1.666;2023-01-15T12:07:38;5.30;91.30
33988;DHT22;37428;53.580;-1.666;2023-01-15T12:10:44;5.40;90.30
33988;DHT22;37428;53.580;-1.666;2023-01-15T12:14:38;5.50;89.80
33988;DHT22;37428;53.580;-1.666;2023-01-15T12:17:57;5.50;89.00
33988;DHT22;37428;53.580;-1.666;2023-01-15T12:21:05;5.50;87.20
33988;DHT22;37428;53.580;-1.666;2023-01-15T12:24:40;5.50;86.70
33988;DHT22;37428;53.580;-1.666;2023-01-15T12:27:56;5.60;85.90
33988;DHT22;37428;53.580;-1.666;2023-01-15T12:31:02;5.70;85.90
33988;DHT22;37428;53.580;-1.666;2023-01-15T12:34:15;5.80;85.20
33988;DHT22;37428;53.580;-1.666;2023-01-15T12:37:23;5.80;85.20
33988;DHT22;37428;53.580;-1.666;2023-01-15T12:40:29;5.90;84.50
33988;DHT22;37428;53.580;-1.666;2023-01-15T12:43:32;5.90;85.10
33988;DHT22;37428;53.580;-1.666;2023-01-15T12:46:52;6.00;84.70
33988;DHT22;37428;53.580;-1.666;2023-01-15T12:50:00;6.00;83.40
33988;DHT22;37428;53.580;-1.666;2023-01-15T12:53:09;6.00;83.00
33988;DHT22;37428;53.580;-1.666;2023-01-15T12:56:18;6.00;82.70
33988;DHT22;37428;53.580;-1.666;2023-01-15T12:59:27;6.00;82.10
33988;DHT22;37428;53.580;-1.666;2023-01-15T13:02:35;6.10;82.40
33988;DHT22;37428;53.580;-1.666;2023-01-15T13:05:45;6.20;81.20
33988;DHT22;37428;53.580;-1.666;2023-01-15T13:08:53;6.50;80.60
33988;DHT22;37428;53.580;-1.666;2023-01-15T13:11:56;6.70;80.00
33988;DHT22;37428;53.580;-1.666;2023-01-15T13:15:00;6.80;79.60
33988;DHT22;37428;53.580;-1.666;2023-01-15T13:18:08;6.80;78.40
33988;DHT22;37428;53.580;-1.666;2023-01-15T13:21:17;6.90;78.70
33988;DHT22;37428;53.580;-1.666;2023-01-15T13:28:17;7.10;77.00
33988;DHT22;37428;53.580;-1.666;2023-01-15T13:31:41;7.30;77.20
33988;DHT22;37428;53.580;-1.666;2023-01-15T13:34:50;7.50;76.20
33988;DHT22;37428;53.580;-1.666;2023-01-15T13:37:58;7.70;77.00
33988;DHT22;37428;53.580;-1.666;2023-01-15T13:41:00;7.80;75.60
33988;DHT22;37428;53.580;-1.666;2023-01-15T13:44:02;7.70;74.70
33988;DHT22;37428;53.580;-1.666;2023-01-15T13:47:06;7.50;71.30
33988;DHT22;37428;53.580;-1.666;2023-01-15T13:50:14;7.40;71.60
33988;DHT22;37428;53.580;-1.666;2023-01-15T13:53:26;7.40;73.90
33988;DHT22;37428;53.580;-1.666;2023-01-15T13:56:30;7.30;75.10
33988;DHT22;37428;53.580;-1.666;2023-01-15T13:59:41;7.20;76.10
33988;DHT22;37428;53.580;-1.666;2023-01-15T14:02:51;7.00;76.40
33988;DHT22;37428;53.580;-1.666;2023-01-15T14:05:55;7.00;76.60
33988;DHT22;37428;53.580;-1.666;2023-01-15T14:08:59;7.00;75.80
33988;DHT22;37428;53.580;-1.666;2023-01-15T14:12:10;6.90;76.20
33988;DHT22;37428;53.580;-1.666;2023-01-15T14:15:34;6.80;77.00
33988;DHT22;37428;53.580;-1.666;2023-01-15T14:19:19;6.70;77.20
33988;DHT22;37428;53.580;-1.666;2023-01-15T14:22:39;6.80;77.50
33988;DHT22;37428;53.580;-1.666;2023-01-15T14:26:04;6.90;78.00
33988;DHT22;37428;53.580;-1.666;2023-01-15T14:32:53;7.00;78.40
33988;DHT22;37428;53.580;-1.666;2023-01-15T14:36:08;6.90;77.30
33988;DHT22;37428;53.580;-1.666;2023-01-15T14:39:24;6.70;78.00
33988;DHT22;37428;53.580;-1.666;2023-01-15T14:42:31;6.60;78.20
33988;DHT22;37428;53.580;-1.666;2023-01-15T14:46:13;6.50;78.80
33988;DHT22;37428;53.580;-1.666;2023-01-15T14:49:27;6.50;79.40
33988;DHT22;37428;53.580;-1.666;2023-01-15T14:52:30;6.60;79.60
33988;DHT22;37428;53.580;-1.666;2023-01-15T14:55:35;6.50;79.20
33988;DHT22;37428;53.580;-1.666;2023-01-15T14:58:47;6.40;79.40
33988;DHT22;37428;53.580;-1.666;2023-01-15T15:01:51;6.40;80.20
33988;DHT22;37428;53.580;-1.666;2023-01-15T15:04:58;6.30;80.60
33988;DHT22;37428;53.580;-1.666;2023-01-15T15:08:02;6.40;80.90
33988;DHT22;37428;53.580;-1.666;2023-01-15T15:11:05;6.40;81.10
33988;DHT22;37428;53.580;-1.666;2023-01-15T15:14:37;6.40;80.90
33988;DHT22;37428;53.580;-1.666;2023-01-15T15:17:47;6.20;81.50
33988;DHT22;37428;53.580;-1.666;2023-01-15T15:21:02;6.00;81.70
33988;DHT22;37428;53.580;-1.666;2023-01-15T15:24:11;6.00;82.00
33988;DHT22;37428;53.580;-1.666;2023-01-15T15:27:17;5.80;81.70
33988;DHT22;37428;53.580;-1.666;2023-01-15T15:30:21;5.60;82.60
33988;DHT22;37428;53.580;-1.666;2023-01-15T15:33:25;5.50;83.00
33988;DHT22;37428;53.580;-1.666;2023-01-15T15:36:30;5.40;83.20
33988;DHT22;37428;53.580;-1.666;2023-01-15T15:39:44;5.40;83.30
33988;DHT22;37428;53.580;-1.666;2023-01-15T15:42:50;5.30;83.80
33988;DHT22;37428;53.580;-1.666;2023-01-15T15:46:29;5.10;84.20
33988;DHT22;37428;53.580;-1.666;2023-01-15T15:49:48;5.10;84.40
33988;DHT22;37428;53.580;-1.666;2023-01-15T15:52:51;5.00;84.70
33988;DHT22;37428;53.580;-1.666;2023-01-15T15:55:54;4.90;85.20
33988;DHT22;37428;53.580;-1.666;2023-01-15T15:58:57;4.90;85.80
33988;DHT22;37428;53.580;-1.666;2023-01-15T16:02:13;4.80;86.50
33988;DHT22;37428;53.580;-1.666;2023-01-15T16:05:22;4.90;86.90
33988;DHT22;37428;53.580;-1.666;2023-01-15T16:08:26;4.80;87.10
33988;DHT22;37428;53.580;-1.666;2023-01-15T16:11:28;4.80;87.40
33988;DHT22;37428;53.580;-1.666;2023-01-15T16:14:33;4.70;87.60
33988;DHT22;37428;53.580;-1.666;2023-01-15T16:17:40;4.70;87.70
33988;DHT22;37428;53.580;-1.666;2023-01-15T16:20:43;4.80;87.50
33988;DHT22;37428;53.580;-1.666;2023-01-15T16:23:55;4.70;87.00
33988;DHT22;37428;53.580;-1.666;2023-01-15T16:27:02;4.70;86.40
33988;DHT22;37428;53.580;-1.666;2023-01-15T16:30:13;4.70;87.60
33988;DHT22;37428;53.580;-1.666;2023-01-15T16:33:18;4.60;87.00
33988;DHT22;37428;53.580;-1.666;2023-01-15T16:36:20;4.70;87.50
33988;DHT22;37428;53.580;-1.666;2023-01-15T16:39:25;4.70;87.30
33988;DHT22;37428;53.580;-1.666;2023-01-15T16:42:32;4.70;86.90
33988;DHT22;37428;53.580;-1.666;2023-01-15T16:45:41;4.80;86.70
33988;DHT22;37428;53.580;-1.666;2023-01-15T16:49:18;4.80;85.90
33988;DHT22;37428;53.580;-1.666;2023-01-15T16:52:46;4.70;85.40
33988;DHT22;37428;53.580;-1.666;2023-01-15T16:55:51;4.60;84.70
33988;DHT22;37428;53.580;-1.666;2023-01-15T16:58:56;4.50;84.80
33988;DHT22;37428;53.580;-1.666;2023-01-15T17:02:03;4.40;85.30
33988;DHT22;37428;53.580;-1.666;2023-01-15T17:05:24;4.30;85.20
33988;DHT22;37428;53.580;-1.666;2023-01-15T17:08:30;4.20;86.30
33988;DHT22;37428;53.580;-1.666;2023-01-15T17:11:34;4.20;86.30
33988;DHT22;37428;53.580;-1.666;2023-01-15T17:14:36;4.20;86.40
33988;DHT22;37428;53.580;-1.666;2023-01-15T17:17:39;4.20;86.30
33988;DHT22;37428;53.580;-1.666;2023-01-15T17:20:42;4.20;85.40
33988;DHT22;37428;53.580;-1.666;2023-01-15T17:23:45;4.20;85.50
33988;DHT22;37428;53.580;-1.666;2023-01-15T17:26:48;4.20;85.00
33988;DHT22;37428;53.580;-1.666;2023-01-15T17:29:50;4.20;84.50
33988;DHT22;37428;53.580;-1.666;2023-01-15T17:32:52;4.20;83.90
33988;DHT22;37428;53.580;-1.666;2023-01-15T17:35:58;4.10;84.30
33988;DHT22;37428;53.580;-1.666;2023-01-15T17:39:01;4.10;84.30
33988;DHT22;37428;53.580;-1.666;2023-01-15T17:42:11;4.10;83.70
33988;DHT22;37428;53.580;-1.666;2023-01-15T17:45:16;4.10;83.70
33988;DHT22;37428;53.580;-1.666;2023-01-15T17:48:19;4.10;83.50
33988;DHT22;37428;53.580;-1.666;2023-01-15T17:51:23;4.10;83.80
33988;DHT22;37428;53.580;-1.666;2023-01-15T17:54:26;4.00;83.60
33988;DHT22;37428;53.580;-1.666;2023-01-15T17:57:43;4.00;83.70
33988;DHT22;37428;53.580;-1.666;2023-01-15T18:01:09;3.90;83.70
33988;DHT22;37428;53.580;-1.666;2023-01-15T18:04:31;4.00;83.70
33988;DHT22;37428;53.580;-1.666;2023-01-15T18:07:54;3.90;84.20
33988;DHT22;37428;53.580;-1.666;2023-01-15T18:10:57;3.90;84.50
33988;DHT22;37428;53.580;-1.666;2023-01-15T18:13:59;3.90;84.50
33988;DHT22;37428;53.580;-1.666;2023-01-15T18:17:01;3.80;84.60
33988;DHT22;37428;53.580;-1.666;2023-01-15T18:20:05;3.80;85.00
33988;DHT22;37428;53.580;-1.666;2023-01-15T18:23:09;3.80;84.90
33988;DHT22;37428;53.580;-1.666;2023-01-15T18:26:11;3.70;85.00
33988;DHT22;37428;53.580;-1.666;2023-01-15T18:29:13;3.70;84.60
33988;DHT22;37428;53.580;-1.666;2023-01-15T18:32:15;3.50;84.30
33988;DHT22;37428;53.580;-1.666;2023-01-15T18:35:18;3.40;84.40
33988;DHT22;37428;53.580;-1.666;2023-01-15T18:38:23;3.30;84.70
33988;DHT22;37428;53.580;-1.666;2023-01-15T18:41:25;3.30;86.00
33988;DHT22;37428;53.580;-1.666;2023-01-15T18:44:45;3.30;86.50
33988;DHT22;37428;53.580;-1.666;2023-01-15T18:48:05;3.30;86.70
33988;DHT22;37428;53.580;-1.666;2023-01-15T18:51:08;3.40;86.80
33988;DHT22;37428;53.580;-1.666;2023-01-15T18:54:12;3.30;87.10
33988;DHT22;37428;53.580;-1.666;2023-01-15T18:57:14;3.30;87.40
33988;DHT22;37428;53.580;-1.666;2023-01-15T19:00:19;3.30;87.70
33988;DHT22;37428;53.580;-1.666;2023-01-15T19:03:21;3.30;88.00
33988;DHT22;37428;53.580;-1.666;2023-01-15T19:06:23;3.20;88.40
33988;DHT22;37428;53.580;-1.666;2023-01-15T19:09:27;3.30;88.70
33988;DHT22;37428;53.580;-1.666;2023-01-15T19:12:29;3.30;88.80
33988;DHT22;37428;53.580;-1.666;2023-01-15T19:15:32;3.30;88.80
33988;DHT22;37428;53.580;-1.666;2023-01-15T19:18:51;3.30;89.00
33988;DHT22;37428;53.580;-1.666;2023-01-15T19:21:54;3.40;89.40
33988;DHT22;37428;53.580;-1.666;2023-01-15T19:25:15;3.40;89.50
33988;DHT22;37428;53.580;-1.666;2023-01-15T19:28:19;3.40;89.50
33988;DHT22;37428;53.580;-1.666;2023-01-15T19:31:21;3.40;89.60
33988;DHT22;37428;53.580;-1.666;2023-01-15T19:34:39;3.50;89.50
33988;DHT22;37428;53.580;-1.666;2023-01-15T19:37:41;3.40;89.40
33988;DHT22;37428;53.580;-1.666;2023-01-15T19:40:44;3.40;89.40
33988;DHT22;37428;53.580;-1.666;2023-01-15T19:43:47;3.40;89.50
33988;DHT22;37428;53.580;-1.666;2023-01-15T19:47:08;3.50;89.40
33988;DHT22;37428;53.580;-1.666;2023-01-15T19:50:34;3.50;89.00